createdAt,value
2018-06-03T00:01:34.686Z,99721.27
2018-06-03T00:04:03.534Z,99713.09
2018-06-03T00:06:32.277Z,99713.39
2018-06-03T00:09:01.022Z,99719.64
2018-06-03T00:11:29.762Z,99715.28
2018-06-03T00:13:58.478Z,99704.96
2018-06-03T00:16:27.182Z,99710.39
2018-06-03T00:18:55.897Z,99707.89
2018-06-03T00:21:35.570Z,99709.22
2018-06-03T00:24:04.325Z,99710.56
2018-06-03T00:26:33.022Z,99707.04
2018-06-03T00:29:01.718Z,99710.80
2018-06-03T00:31:30.456Z,99712.40
2018-06-03T00:33:59.161Z,99709.94
2018-06-03T00:36:39.009Z,99710.70
2018-06-03T00:39:08.897Z,99710.97
2018-06-03T00:41:37.621Z,99707.44
2018-06-03T00:44:06.367Z,99711.20
2018-06-03T00:46:35.091Z,99712.50
2018-06-03T00:49:03.916Z,99711.08
2018-06-03T00:51:32.719Z,99711.92
2018-06-03T00:54:01.439Z,99710.87
2018-06-03T00:56:41.101Z,99709.48
2018-06-03T00:59:09.819Z,99710.81
2018-06-03T01:01:38.531Z,99706.73
2018-06-03T01:04:07.278Z,99707.21
2018-06-03T01:06:36.011Z,99709.61
2018-06-03T01:09:05.960Z,99712.00
2018-06-03T01:11:34.694Z,99711.65
2018-06-03T01:14:03.501Z,99719.41
2018-06-03T01:16:32.374Z,99721.28
2018-06-03T01:19:01.124Z,99723.08
2018-06-03T01:21:29.842Z,99716.73
2018-06-03T01:23:58.533Z,99719.72
2018-06-03T01:26:27.276Z,99718.69
2018-06-03T01:28:55.965Z,99719.47
2018-06-03T01:31:24.649Z,99726.20
2018-06-03T01:33:53.405Z,99722.92
2018-06-03T01:36:22.102Z,99717.96
2018-06-03T01:38:50.813Z,99717.14
2018-06-03T01:41:19.529Z,99709.84
2018-06-03T01:43:48.301Z,99717.89
2018-06-03T01:46:17.019Z,99715.92
2018-06-03T01:48:45.754Z,99708.84
2018-06-03T01:51:14.467Z,99700.45
2018-06-03T01:53:43.174Z,99704.22
2018-06-03T01:56:11.887Z,99710.59
2018-06-03T01:58:40.586Z,99709.17
2018-06-03T02:01:09.300Z,99699.95
2018-06-03T02:03:38.063Z,99702.61
2018-06-03T02:06:06.770Z,99707.72
2018-06-03T02:08:35.498Z,99704.77
2018-06-03T02:11:04.230Z,99708.55
2018-06-03T02:13:32.972Z,99708.30
2018-06-03T02:16:01.662Z,99704.36
2018-06-03T02:18:30.618Z,99711.34
2018-06-03T02:20:59.337Z,99711.81
2018-06-03T02:23:28.057Z,99709.42
2018-06-03T02:25:56.810Z,99714.04
2018-06-03T02:28:25.708Z,99715.91
2018-06-03T02:30:54.424Z,99714.58
2018-06-03T02:33:23.171Z,99711.27
2018-06-03T02:35:51.922Z,99712.88
2018-06-03T02:38:20.660Z,99711.50
2018-06-03T02:40:49.431Z,99719.09
2018-06-03T02:43:18.146Z,99715.67
2018-06-03T02:45:46.850Z,99718.09
2018-06-03T02:48:15.566Z,99723.55
2018-06-03T02:50:44.275Z,99719.71
2018-06-03T02:53:12.973Z,99719.52
2018-06-03T02:55:41.695Z,99723.84
2018-06-03T02:58:10.390Z,99721.00
2018-06-03T03:00:39.103Z,99729.19
2018-06-03T03:03:07.824Z,99727.28
2018-06-03T03:05:36.506Z,99722.44
2018-06-03T03:08:05.231Z,99724.87
2018-06-03T03:10:34.132Z,99724.09
2018-06-03T03:13:02.847Z,99725.19
2018-06-03T03:15:31.565Z,99723.30
2018-06-03T03:18:00.285Z,99724.66
2018-06-03T03:20:29.030Z,99723.84
2018-06-03T03:22:57.723Z,99719.52
2018-06-03T03:25:26.489Z,99719.89
2018-06-03T03:27:55.245Z,99715.72
2018-06-03T03:30:24.084Z,99718.70
2018-06-03T03:32:52.823Z,99722.52
2018-06-03T03:35:21.534Z,99715.47
2018-06-03T03:37:50.264Z,99714.67
2018-06-03T03:40:19.016Z,99714.59
2018-06-03T03:42:47.739Z,99717.33
2018-06-03T03:45:16.442Z,99710.32
2018-06-03T03:47:45.199Z,99712.30
2018-06-03T03:50:13.994Z,99715.11
2018-06-03T03:52:42.701Z,99711.20
2018-06-03T03:55:11.458Z,99726.56
2018-06-03T03:57:40.262Z,99726.23
2018-06-03T04:00:09.003Z,99719.55
2018-06-03T04:02:37.786Z,99715.89
2018-06-03T04:05:06.515Z,99715.31
2018-06-03T04:07:35.245Z,99721.36
2018-06-03T04:10:03.999Z,99724.86
2018-06-03T04:12:32.699Z,99729.77
2018-06-03T04:15:01.415Z,99725.02
2018-06-03T04:17:30.146Z,99731.32
2018-06-03T04:19:59.066Z,99727.59
2018-06-03T04:22:27.805Z,99733.14
2018-06-03T04:24:56.586Z,99714.23
2018-06-03T04:27:25.299Z,99721.03
2018-06-03T04:29:54.005Z,99720.88
2018-06-03T04:32:22.734Z,99718.37
2018-06-03T04:34:51.443Z,99717.54
2018-06-03T04:37:20.164Z,99714.05
2018-06-03T04:39:48.922Z,99713.08
2018-06-03T04:42:17.631Z,99709.02
2018-06-03T04:44:46.348Z,99710.56
2018-06-03T04:47:15.117Z,99716.38
2018-06-03T04:49:43.803Z,99715.04
2018-06-03T04:52:12.502Z,99716.79
2018-06-03T04:54:41.248Z,99713.28
2018-06-03T04:57:09.956Z,99714.31
2018-06-03T04:59:38.654Z,99715.47
2018-06-03T05:02:07.499Z,99716.92
2018-06-03T05:04:36.209Z,99714.15
2018-06-03T05:07:04.919Z,99715.87
2018-06-03T05:09:33.654Z,99719.28
2018-06-03T05:12:02.350Z,99717.59
2018-06-03T05:14:31.301Z,99713.94
2018-06-03T05:17:00.227Z,99714.69
2018-06-03T05:19:28.943Z,99712.66
2018-06-03T05:21:57.652Z,99707.89
2018-06-03T05:24:26.398Z,99708.82
2018-06-03T05:26:55.129Z,99711.77
2018-06-03T05:29:23.834Z,99701.90
2018-06-03T05:31:52.561Z,99700.06
2018-06-03T05:34:21.295Z,99704.76
2018-06-03T05:36:50.050Z,99697.33
2018-06-03T05:39:18.835Z,99707.59
2018-06-03T05:41:47.563Z,99706.34
2018-06-03T05:44:16.284Z,99702.95
2018-06-03T05:46:45.030Z,99704.89
2018-06-03T05:49:13.750Z,99694.52
2018-06-03T05:51:42.488Z,99692.33
2018-06-03T05:54:11.365Z,99695.44
2018-06-03T05:56:40.085Z,99697.75
2018-06-03T05:59:08.821Z,99701.31
2018-06-03T06:01:37.602Z,99696.94
2018-06-03T06:04:06.302Z,99699.33
2018-06-03T06:06:35.020Z,99702.64
2018-06-03T06:09:03.961Z,99699.78
2018-06-03T06:11:32.725Z,99697.33
2018-06-03T06:14:01.474Z,99698.89
2018-06-03T06:16:30.248Z,99694.92
2018-06-03T06:18:58.968Z,99702.53
2018-06-03T06:21:27.708Z,99694.40
2018-06-03T06:23:56.471Z,99688.87
2018-06-03T06:26:25.229Z,99689.72
2018-06-03T06:28:53.936Z,99686.70
2018-06-03T06:31:22.656Z,99680.59
2018-06-03T06:33:51.378Z,99679.44
2018-06-03T06:36:20.062Z,99680.01
2018-06-03T06:38:48.793Z,99680.92
2018-06-03T06:41:17.489Z,99672.24
2018-06-03T06:43:46.190Z,99675.30
2018-06-03T06:46:14.942Z,99675.36
2018-06-03T06:48:43.644Z,99670.50
2018-06-03T06:51:12.400Z,99671.47
2018-06-03T06:53:41.166Z,99666.05
2018-06-03T06:56:10.054Z,99661.03
2018-06-03T06:58:38.768Z,99661.36
2018-06-03T07:01:07.559Z,99654.72
2018-06-03T07:03:36.309Z,99653.98
2018-06-03T07:06:05.012Z,99658.70
2018-06-03T07:08:33.742Z,99652.34
2018-06-03T07:11:02.599Z,99649.16
2018-06-03T07:13:31.307Z,99643.48
2018-06-03T07:16:00.040Z,99637.90
2018-06-03T07:18:28.746Z,99639.43
2018-06-03T07:20:57.459Z,99639.38
2018-06-03T07:23:26.242Z,99637.34
2018-06-03T07:25:54.987Z,99640.25
2018-06-03T07:28:23.669Z,99639.56
2018-06-03T07:30:52.390Z,99636.67
2018-06-03T07:33:21.081Z,99637.77
2018-06-03T07:35:49.799Z,99636.44
2018-06-03T07:38:18.588Z,99633.98
2018-06-03T07:40:47.303Z,99646.46
2018-06-03T07:43:16.521Z,99641.69
2018-06-03T07:45:45.290Z,99634.41
2018-06-03T07:48:14.046Z,99629.63
2018-06-03T07:50:42.771Z,99632.05
2018-06-03T07:53:11.507Z,99634.69
2018-06-03T07:55:40.225Z,99629.55
2018-06-03T07:58:08.951Z,99625.36
2018-06-03T08:00:37.682Z,99621.09
2018-06-03T08:03:06.406Z,99627.78
2018-06-03T08:05:35.095Z,99620.30
2018-06-03T08:08:03.855Z,99624.50
2018-06-03T08:10:32.555Z,99627.21
2018-06-03T08:13:01.250Z,99625.64
2018-06-03T08:15:29.983Z,99632.78
2018-06-03T08:17:58.739Z,99629.80
2018-06-03T08:20:28.028Z,99621.82
2018-06-03T08:22:56.770Z,99620.94
2018-06-03T08:25:25.483Z,99625.35
2018-06-03T08:27:54.179Z,99612.61
2018-06-03T08:30:22.964Z,99620.39
2018-06-03T08:32:51.714Z,99620.56
2018-06-03T08:35:20.454Z,99614.58
2018-06-03T08:37:49.222Z,99603.23
2018-06-03T08:40:18.471Z,99613.16
2018-06-03T08:42:47.176Z,99605.14
2018-06-03T08:45:15.918Z,99602.91
2018-06-03T08:47:44.626Z,99599.02
2018-06-03T08:50:13.338Z,99592.98
2018-06-03T08:52:42.091Z,99596.06
2018-06-03T08:55:10.884Z,99586.14
2018-06-03T08:57:39.640Z,99595.03
2018-06-03T09:00:08.386Z,99592.89
2018-06-03T09:02:37.094Z,99595.00
2018-06-03T09:05:06.223Z,99593.45
2018-06-03T09:07:35.003Z,99592.84
2018-06-03T09:10:03.715Z,99593.25
2018-06-03T09:12:32.460Z,99588.59
2018-06-03T09:15:01.194Z,99597.61
2018-06-03T09:17:29.915Z,99591.43
2018-06-03T09:19:58.651Z,99591.62
2018-06-03T09:22:27.431Z,99598.05
2018-06-03T09:24:56.167Z,99591.70
2018-06-03T09:27:24.911Z,99592.71
2018-06-03T09:29:53.689Z,99592.64
2018-06-03T09:32:22.421Z,99586.28
2018-06-03T09:34:51.138Z,99578.11
2018-06-03T09:37:19.900Z,99572.79
2018-06-03T09:39:48.629Z,99568.46
2018-06-03T09:42:17.407Z,99564.76
2018-06-03T09:44:46.269Z,99561.73
2018-06-03T09:47:15.023Z,99556.97
2018-06-03T09:49:43.783Z,99551.89
2018-06-03T09:52:12.658Z,99551.81
2018-06-03T09:54:41.519Z,99554.58
2018-06-03T09:57:10.342Z,99553.18
2018-06-03T09:59:39.286Z,99542.30
2018-06-03T10:02:08.170Z,99537.44
2018-06-03T10:04:36.895Z,99541.41
2018-06-03T10:07:05.664Z,99537.44
2018-06-03T10:09:34.414Z,99540.11
2018-06-03T10:12:03.109Z,99545.84
2018-06-03T10:14:31.865Z,99554.37
2018-06-03T10:17:00.569Z,99549.56
2018-06-03T10:19:29.277Z,99557.38
2018-06-03T10:21:58.067Z,99547.47
2018-06-03T10:24:26.782Z,99544.13
2018-06-03T10:26:55.523Z,99534.61
2018-06-03T10:29:24.321Z,99529.92
2018-06-03T10:31:53.055Z,99537.46
2018-06-03T10:34:21.827Z,99528.04
2018-06-03T10:36:50.595Z,99527.86
2018-06-03T10:39:19.459Z,99532.75
2018-06-03T10:41:48.222Z,99534.89
2018-06-03T10:44:17.010Z,99539.75
2018-06-03T10:46:45.750Z,99547.92
2018-06-03T10:49:14.486Z,99552.25
2018-06-03T10:51:43.226Z,99545.67
2018-06-03T10:54:12.047Z,99543.31
2018-06-03T10:56:40.827Z,99539.08
2018-06-03T10:59:09.677Z,99540.44
2018-06-03T11:01:38.522Z,99542.33
2018-06-03T11:04:07.335Z,99550.20
2018-06-03T11:06:36.454Z,99544.52
2018-06-03T11:09:06.871Z,99540.05
2018-06-03T11:11:35.740Z,99542.73
2018-06-03T11:14:04.534Z,99544.24
2018-06-03T11:16:33.358Z,99549.79
2018-06-03T11:19:02.175Z,99549.17
2018-06-03T11:21:30.985Z,99556.03
2018-06-03T11:23:59.814Z,99556.31
2018-06-03T11:26:28.582Z,99537.23
2018-06-03T11:28:57.382Z,99537.91
2018-06-03T11:31:26.115Z,99530.11
2018-06-03T11:33:54.829Z,99525.85
2018-06-03T11:36:23.594Z,99522.52
2018-06-03T11:38:52.342Z,99520.56
2018-06-03T11:41:21.137Z,99516.59
2018-06-03T11:43:49.944Z,99527.28
2018-06-03T11:46:18.681Z,99525.19
2018-06-03T11:48:47.407Z,99515.63
2018-06-03T11:51:17.000Z,99500.66
2018-06-03T11:53:45.795Z,99505.56
2018-06-03T11:56:14.537Z,99493.22
2018-06-03T11:58:52.486Z,99493.56
2018-06-03T12:01:21.377Z,99494.44
2018-06-03T12:03:50.155Z,99497.06
2018-06-03T12:06:18.873Z,99491.00
2018-06-03T12:08:47.629Z,99485.91
2018-06-03T12:11:16.507Z,99481.18
2018-06-03T12:13:45.262Z,99473.00
2018-06-03T12:16:13.966Z,99462.00
2018-06-03T12:18:42.714Z,99459.17
2018-06-03T12:21:11.552Z,99458.23
2018-06-03T12:23:40.258Z,99458.95
2018-06-03T12:26:09.065Z,99460.78
2018-06-03T12:28:37.830Z,99467.48
2018-06-03T12:31:06.610Z,99461.83
2018-06-03T12:33:35.376Z,99458.42
2018-06-03T12:36:04.176Z,99465.42
2018-06-03T12:38:32.994Z,99459.05
2018-06-03T12:41:01.755Z,99460.23
2018-06-03T12:43:30.505Z,99453.24
2018-06-03T12:45:59.247Z,99457.16
2018-06-03T12:48:27.994Z,99461.98
2018-06-03T12:50:56.810Z,99448.66
2018-06-03T12:53:25.582Z,99448.36
2018-06-03T12:55:54.311Z,99444.41
2018-06-03T12:58:23.090Z,99443.05
2018-06-03T13:00:51.889Z,99447.33
2018-06-03T13:03:20.636Z,99437.70
2018-06-03T13:05:49.374Z,99431.42
2018-06-03T13:08:18.120Z,99438.44
2018-06-03T13:10:47.672Z,99435.23
2018-06-03T13:13:16.462Z,99437.70
2018-06-03T13:15:45.191Z,99427.11
2018-06-03T13:18:13.935Z,99426.78
2018-06-03T13:20:42.686Z,99423.52
2018-06-03T13:23:11.403Z,99422.89
2018-06-03T13:25:40.127Z,99418.88
2018-06-03T13:28:08.870Z,99416.84
2018-06-03T13:30:37.602Z,99420.19
2018-06-03T13:33:06.490Z,99413.61
2018-06-03T13:35:35.263Z,99413.02
2018-06-03T13:38:03.986Z,99406.56
2018-06-03T13:40:32.706Z,99397.28
2018-06-03T13:43:01.474Z,99401.65
2018-06-03T13:45:30.442Z,99412.63
2018-06-03T13:47:59.542Z,99409.45
2018-06-03T13:50:28.689Z,99407.45
2018-06-03T13:52:58.046Z,99398.09
2018-06-03T13:55:26.787Z,99392.53
2018-06-03T13:57:55.579Z,99397.86
2018-06-03T14:00:24.431Z,99395.84
2018-06-03T14:02:53.156Z,99391.23
2018-06-03T14:05:22.087Z,99374.40
2018-06-03T14:07:50.857Z,99367.10
2018-06-03T14:10:19.598Z,99358.20
2018-06-03T14:12:51.648Z,99356.36
2018-06-03T14:15:20.536Z,99346.75
2018-06-03T14:17:49.299Z,99335.95
2018-06-03T14:20:18.527Z,99331.88
2018-06-03T14:22:47.298Z,99328.92
2018-06-03T14:25:16.062Z,99313.83
2018-06-03T14:27:44.790Z,99319.62
2018-06-03T14:30:13.495Z,99306.95
2018-06-03T14:32:42.269Z,99309.14
2018-06-03T14:35:11.086Z,99303.46
2018-06-03T14:37:39.811Z,99299.80
2018-06-03T14:40:08.600Z,99292.21
2018-06-03T14:42:37.321Z,99296.39
2018-06-03T14:45:06.050Z,99292.92
2018-06-03T14:47:34.802Z,99296.67
2018-06-03T14:50:03.570Z,99297.41
2018-06-03T14:52:32.295Z,99297.88
2018-06-03T14:55:01.058Z,99307.16
2018-06-03T14:57:29.812Z,99299.93
2018-06-03T14:59:58.505Z,99299.25
2018-06-03T15:02:27.242Z,99298.05
2018-06-03T15:04:55.955Z,99293.10
2018-06-03T15:07:24.669Z,99295.31
2018-06-03T15:09:53.478Z,99293.41
2018-06-03T15:12:22.203Z,99288.69
2018-06-03T15:14:50.931Z,99292.89
2018-06-03T15:17:19.703Z,99297.28
2018-06-03T15:19:48.449Z,99293.84
2018-06-03T15:22:17.963Z,99297.05
2018-06-03T15:24:46.765Z,99299.67
2018-06-03T15:27:15.510Z,99290.14
2018-06-03T15:29:44.229Z,99289.19
2018-06-03T15:32:13.016Z,99292.09
2018-06-03T15:34:41.745Z,99299.09
2018-06-03T15:37:10.492Z,99292.39
2018-06-03T15:39:39.454Z,99291.50
2018-06-03T15:42:08.411Z,99286.06
2018-06-03T15:44:37.352Z,99282.80
2018-06-03T15:47:06.160Z,99283.05
2018-06-03T15:49:34.884Z,99274.77
2018-06-03T15:52:03.615Z,99273.58
2018-06-03T15:54:32.403Z,99270.48
2018-06-03T15:57:01.162Z,99272.44
2018-06-03T15:59:29.908Z,99264.41
2018-06-03T16:01:58.663Z,99264.73
2018-06-03T16:04:27.385Z,99268.14
2018-06-03T16:06:56.382Z,99267.77
2018-06-03T16:09:25.136Z,99269.20
2018-06-03T16:11:53.893Z,99270.01
2018-06-03T16:14:22.636Z,99273.09
2018-06-03T16:16:51.412Z,99272.41
2018-06-03T16:19:20.140Z,99272.70
2018-06-03T16:21:48.857Z,99265.12
2018-06-03T16:24:17.618Z,99271.33
2018-06-03T16:26:46.528Z,99265.08
2018-06-03T16:29:15.275Z,99261.96
2018-06-03T16:31:44.043Z,99257.02
2018-06-03T16:34:12.774Z,99261.37
2018-06-03T16:36:41.512Z,99262.95
2018-06-03T16:39:10.247Z,99267.70
2018-06-03T16:41:39.021Z,99275.22
2018-06-03T16:44:07.730Z,99274.55
2018-06-03T16:46:36.463Z,99273.64
2018-06-03T16:49:05.174Z,99276.56
2018-06-03T16:51:34.003Z,99275.84
2018-06-03T16:54:02.745Z,99276.06
2018-06-03T16:56:31.520Z,99280.81
2018-06-03T16:59:00.246Z,99285.46
2018-06-03T17:01:28.995Z,99274.09
2018-06-03T17:03:57.700Z,99277.11
2018-06-03T17:06:26.498Z,99280.10
2018-06-03T17:08:55.270Z,99279.98
2018-06-03T17:11:23.992Z,99280.06
2018-06-03T17:13:52.699Z,99285.89
2018-06-03T17:16:21.441Z,99290.78
2018-06-03T17:18:50.179Z,99292.09
2018-06-03T17:21:18.890Z,99291.92
2018-06-03T17:23:47.620Z,99295.59
2018-06-03T17:26:16.398Z,99300.64
2018-06-03T17:28:45.093Z,99313.23
2018-06-03T17:31:13.844Z,99315.42
2018-06-03T17:33:42.563Z,99316.09
2018-06-03T17:36:11.276Z,99315.59
2018-06-03T17:38:40.167Z,99312.19
2018-06-03T17:41:08.892Z,99318.72
2018-06-03T17:43:37.627Z,99317.92
2018-06-03T17:46:06.405Z,99319.86
2018-06-03T17:48:35.170Z,99316.48
2018-06-03T17:51:03.963Z,99314.17
2018-06-03T17:53:32.792Z,99282.27
2018-06-03T17:56:01.614Z,99312.12
2018-06-03T17:58:30.482Z,99316.95
2018-06-03T18:00:59.243Z,99311.58
2018-06-03T18:03:28.154Z,99325.41
2018-06-03T18:06:00.448Z,99326.87
2018-06-03T18:08:29.287Z,99318.52
2018-06-03T18:11:03.612Z,99328.89
2018-06-03T18:13:37.415Z,99327.42
2018-06-03T18:16:12.456Z,99335.86
2018-06-03T18:18:42.757Z,99333.91
2018-06-03T18:21:15.174Z,99331.03
2018-06-03T18:23:44.753Z,99335.98
2018-06-03T18:26:15.527Z,99342.35
2018-06-03T18:28:46.600Z,99341.87
2018-06-03T18:31:22.430Z,99331.98
2018-06-03T18:33:58.157Z,99332.42
2018-06-03T18:36:35.017Z,99332.63
2018-06-03T18:39:12.034Z,99336.90
2018-06-03T18:41:49.130Z,99344.42
2018-06-03T18:44:18.136Z,99354.00
2018-06-03T18:46:46.907Z,99358.66
2018-06-03T18:49:15.606Z,99356.09
2018-06-03T18:51:44.312Z,99362.77
2018-06-03T18:54:13.226Z,99369.92
2018-06-03T18:56:41.954Z,99384.58
2018-06-03T18:59:10.710Z,99388.33
2018-06-03T19:01:39.630Z,99392.11
2018-06-03T19:04:08.378Z,99395.08
2018-06-03T19:06:37.168Z,99398.86
2018-06-03T19:09:07.561Z,99394.28
2018-06-03T19:11:36.388Z,99392.23
2018-06-03T19:14:05.248Z,99389.64
2018-06-03T19:16:34.158Z,99397.33
2018-06-03T19:19:02.981Z,99396.33
2018-06-03T19:21:31.715Z,99404.15
2018-06-03T19:24:00.493Z,99401.10
2018-06-03T19:26:29.202Z,99406.99
2018-06-03T19:28:57.908Z,99403.91
2018-06-03T19:31:26.668Z,99403.59
2018-06-03T19:33:55.422Z,99401.27
2018-06-03T19:36:24.118Z,99395.31
2018-06-03T19:38:52.855Z,99398.77
2018-06-03T19:41:21.642Z,99399.67
2018-06-03T19:43:50.365Z,99399.73
2018-06-03T19:46:19.323Z,99406.59
2018-06-03T19:48:48.081Z,99413.98
2018-06-03T19:51:16.882Z,99414.84
2018-06-03T19:53:46.862Z,99413.79
2018-06-03T19:56:15.598Z,99411.79
2018-06-03T19:58:44.322Z,99415.16
2018-06-03T20:01:13.082Z,99412.41
2018-06-03T20:03:41.835Z,99408.97
2018-06-03T20:06:10.562Z,99412.98
2018-06-03T20:08:40.243Z,99414.23
2018-06-03T20:11:08.983Z,99412.38
2018-06-03T20:13:37.710Z,99405.05
2018-06-03T20:16:06.479Z,99395.33
2018-06-03T20:18:35.239Z,99400.69
2018-06-03T20:21:03.966Z,99403.67
2018-06-03T20:23:32.817Z,99403.70
2018-06-03T20:26:01.581Z,99402.20
2018-06-03T20:28:30.413Z,99405.75
2018-06-03T20:30:59.258Z,99412.05
2018-06-03T20:33:28.020Z,99411.80
2018-06-03T20:35:56.758Z,99412.77
2018-06-03T20:38:25.515Z,99403.53
2018-06-03T20:40:54.334Z,99414.91
2018-06-03T20:43:23.039Z,99418.88
2018-06-03T20:45:51.848Z,99415.66
2018-06-03T20:48:20.553Z,99418.38
2018-06-03T20:50:49.306Z,99412.68
2018-06-03T20:53:18.074Z,99413.48
2018-06-03T20:55:46.780Z,99414.61
2018-06-03T20:58:15.486Z,99410.60
2018-06-03T21:00:44.209Z,99419.75
2018-06-03T21:03:12.931Z,99417.97
2018-06-03T21:05:41.653Z,99418.00
2018-06-03T21:08:10.398Z,99421.03
2018-06-03T21:10:39.165Z,99423.09
2018-06-03T21:13:07.905Z,99417.61
2018-06-03T21:15:36.661Z,99422.40
2018-06-03T21:18:05.566Z,99421.52
2018-06-03T21:20:34.413Z,99416.55
2018-06-03T21:23:03.144Z,99421.68
2018-06-03T21:25:31.833Z,99412.94
2018-06-03T21:28:00.745Z,99405.64
2018-06-03T21:30:29.512Z,99408.42
2018-06-03T21:32:58.235Z,99407.08
2018-06-03T21:35:27.018Z,99399.37
2018-06-03T21:37:55.796Z,99411.83
2018-06-03T21:40:24.558Z,99413.63
2018-06-03T21:42:53.314Z,99409.45
2018-06-03T21:45:22.085Z,99408.69
2018-06-03T21:47:50.806Z,99411.68
2018-06-03T21:50:19.535Z,99409.77
2018-06-03T21:52:48.261Z,99409.61
2018-06-03T21:55:16.949Z,99414.27
2018-06-03T21:57:45.641Z,99409.13
2018-06-03T22:00:15.102Z,99409.24
2018-06-03T22:02:43.897Z,99411.77
2018-06-03T22:05:12.730Z,99409.65
2018-06-03T22:07:41.498Z,99406.97
2018-06-03T22:10:10.234Z,99400.22
2018-06-03T22:12:38.921Z,99407.64
2018-06-03T22:15:07.652Z,99405.52
2018-06-03T22:17:36.349Z,99410.06
2018-06-03T22:20:05.196Z,99409.66
2018-06-03T22:22:33.921Z,99402.09
2018-06-03T22:25:02.638Z,99397.76
2018-06-03T22:27:31.338Z,99390.96
2018-06-03T22:30:00.087Z,99389.13
2018-06-03T22:32:28.774Z,99390.50
2018-06-03T22:34:57.463Z,99385.94
2018-06-03T22:37:26.181Z,99383.82
2018-06-03T22:39:55.005Z,99376.64
2018-06-03T22:42:23.891Z,99378.67
2018-06-03T22:44:52.619Z,99370.51
2018-06-03T22:47:21.305Z,99368.85
2018-06-03T22:49:49.993Z,99364.18
2018-06-03T22:52:18.702Z,99365.28
2018-06-03T22:54:47.393Z,99363.23
2018-06-03T22:57:48.322Z,99359.74
2018-06-03T23:00:22.515Z,99359.09
2018-06-03T23:02:56.624Z,99363.42
2018-06-03T23:05:25.359Z,99358.53
2018-06-03T23:07:54.174Z,99359.67
2018-06-03T23:10:23.009Z,99351.29
2018-06-03T23:12:51.702Z,99355.95
2018-06-03T23:15:20.423Z,99352.13
2018-06-03T23:17:49.162Z,99348.34
2018-06-03T23:20:17.945Z,99344.56
2018-06-03T23:22:46.686Z,99353.87
2018-06-03T23:25:15.450Z,99350.90
2018-06-03T23:27:44.209Z,99347.08
2018-06-03T23:30:12.945Z,99349.59
2018-06-03T23:32:41.703Z,99345.29
2018-06-03T23:35:10.415Z,99341.50
2018-06-03T23:37:39.144Z,99341.22
2018-06-03T23:40:07.881Z,99341.55
2018-06-03T23:42:36.598Z,99340.77
2018-06-03T23:45:05.310Z,99341.88
2018-06-03T23:47:34.046Z,99344.61
2018-06-03T23:50:02.769Z,99339.73
2018-06-03T23:52:31.493Z,99336.01
2018-06-03T23:55:00.253Z,99338.77
2018-06-03T23:57:28.962Z,99339.61
2018-06-03T23:59:57.835Z,99343.95
